Time;durP1;ratioP1;P1;durP2;ratioP2;P2;SDS_P1;SDS_P2;PMS_P1;PMS_P2;Temp;Humidity;BMP_temperature;BMP_pressure;BME280_temperature;BME280_humidity;BME280_pressure;Samples;Min_cycle;Max_cycle;Signal;HPM_P1;HPM_P2
2023/01/11 00:01:40;;;;;;;2.30;1.50;;;8.50;99.90;;;;;;5073170;28;20396;-70
2023/01/11 00:04:06;;;;;;;1.67;1.00;;;8.60;99.90;;;;;;5073489;28;20600;-70
2023/01/11 00:06:31;;;;;;;2.10;1.03;;;8.60;99.90;;;;;;5073706;28;20255;-71
2023/01/11 00:08:58;;;;;;;2.23;1.47;;;8.50;99.90;;;;;;5072338;28;20543;-71
2023/01/11 00:11:24;;;;;;;1.67;1.10;;;8.60;99.90;;;;;;5072882;28;20254;-71
2023/01/11 00:13:49;;;;;;;3.03;1.20;;;8.70;99.90;;;;;;5072684;28;20847;-71
2023/01/11 00:16:15;;;;;;;1.40;1.30;;;8.60;99.90;;;;;;5072879;28;20207;-71
2023/01/11 00:18:41;;;;;;;1.87;1.13;;;8.60;99.90;;;;;;5072643;28;20627;-70
2023/01/11 00:21:07;;;;;;;4.10;1.20;;;8.60;99.90;;;;;;5072549;28;20407;-70
2023/01/11 00:23:36;;;;;;;2.63;1.40;;;8.70;99.90;;;;;;5072017;28;20280;-70
2023/01/11 00:26:08;;;;;;;1.70;1.17;;;8.80;99.90;;;;;;5072467;28;20416;-71
2023/01/11 00:28:34;;;;;;;1.40;1.20;;;8.70;99.90;;;;;;5072970;28;20494;-72
2023/01/11 00:31:00;;;;;;;1.67;1.10;;;8.80;99.90;;;;;;5072901;28;20945;-71
2023/01/11 00:33:26;;;;;;;3.60;1.20;;;8.70;99.90;;;;;;5072134;28;20220;-71
2023/01/11 00:35:52;;;;;;;1.50;1.13;;;8.70;99.90;;;;;;5072065;28;20405;-70
2023/01/11 00:47:55;;;;;;;1.30;0.77;;;8.70;99.90;;;;;;5071964;28;20400;-70
2023/01/11 00:49:17;;;;;;;2.10;1.17;;;8.80;99.90;;;;;;5071598;28;20764;-70
2023/01/11 00:51:43;;;;;;;1.43;0.90;;;8.80;99.90;;;;;;5071661;28;20447;-70
2023/01/11 00:54:08;;;;;;;3.33;1.50;;;8.80;99.90;;;;;;5071128;28;20684;-70
2023/01/11 00:56:34;;;;;;;1.10;0.80;;;8.70;99.90;;;;;;5071812;28;20620;-70
2023/01/11 00:59:00;;;;;;;2.80;1.10;;;8.90;99.90;;;;;;5072140;28;20318;-70
2023/01/11 01:01:26;;;;;;;1.70;0.97;;;8.80;99.90;;;;;;5072053;28;20511;-70
2023/01/11 01:03:51;;;;;;;1.00;0.90;;;8.70;99.90;;;;;;5072321;28;20475;-70
2023/01/11 01:06:17;;;;;;;2.50;1.00;;;8.70;99.90;;;;;;5072294;28;20170;-70
2023/01/11 01:08:43;;;;;;;3.87;0.97;;;8.90;99.90;;;;;;5070621;28;20538;-69
2023/01/11 01:11:08;;;;;;;3.13;1.00;;;8.80;99.90;;;;;;5072128;28;20208;-70
2023/01/11 01:16:18;;;;;;;2.00;1.07;;;8.80;99.90;;;;;;5072308;28;20649;-71
2023/01/11 01:18:44;;;;;;;2.77;1.20;;;8.80;99.90;;;;;;5054223;28;20412;-71
2023/01/11 01:21:10;;;;;;;2.13;0.60;;;8.80;99.90;;;;;;5071723;28;20615;-70
2023/01/11 01:23:35;;;;;;;2.20;1.10;;;8.80;99.90;;;;;;5071197;28;20725;-70
2023/01/11 01:26:05;;;;;;;1.37;0.90;;;8.80;99.90;;;;;;5071577;28;20180;-69
2023/01/11 01:28:31;;;;;;;1.63;1.03;;;8.90;99.90;;;;;;5048213;28;20208;-71
2023/01/11 01:30:56;;;;;;;1.83;0.90;;;8.90;99.90;;;;;;5033838;28;20460;-71
2023/01/11 01:33:22;;;;;;;3.17;0.97;;;8.80;99.90;;;;;;5051725;28;20456;-71
2023/01/11 01:35:48;;;;;;;1.63;0.70;;;8.80;99.90;;;;;;5052279;28;20177;-71
2023/01/11 01:38:14;;;;;;;1.60;0.90;;;8.70;99.90;;;;;;5060217;28;20414;-71
2023/01/11 01:40:41;;;;;;;1.67;1.20;;;8.80;99.90;;;;;;5076243;28;20175;-71
2023/01/11 01:43:11;;;;;;;1.50;0.87;;;8.70;99.90;;;;;;5075710;28;20423;-71
2023/01/11 01:45:37;;;;;;;1.10;0.80;;;8.70;99.90;;;;;;5057232;28;20436;-68
2023/01/11 01:48:05;;;;;;;1.10;0.70;;;8.70;99.90;;;;;;5075947;28;20415;-70
2023/01/11 01:50:42;;;;;;;1.63;0.70;;;8.70;99.90;;;;;;5075776;28;20557;-70
2023/01/11 01:53:13;;;;;;;2.67;0.97;;;8.60;99.90;;;;;;5057646;28;20433;-71
2023/01/11 01:55:42;;;;;;;1.93;0.87;;;8.60;99.90;;;;;;5075522;28;20398;-71
2023/01/11 01:58:14;;;;;;;1.87;1.00;;;8.70;99.90;;;;;;5058057;28;20516;-70
2023/01/11 02:00:42;;;;;;;1.80;0.83;;;8.70;99.90;;;;;;5075761;28;20419;-70
2023/01/11 02:03:11;;;;;;;1.20;0.70;;;8.70;99.90;;;;;;5076143;28;20925;-70
2023/01/11 02:05:36;;;;;;;2.00;0.80;;;8.70;99.90;;;;;;5076460;28;20403;-70
2023/01/11 02:08:09;;;;;;;1.07;0.67;;;8.80;99.90;;;;;;5075565;28;20400;-70
2023/01/11 02:10:36;;;;;;;0.90;0.67;;;8.80;99.90;;;;;;5073553;28;20195;-70
2023/01/11 02:13:07;;;;;;;2.23;0.80;;;8.70;99.90;;;;;;5057020;28;20439;-71
2023/01/11 02:15:34;;;;;;;1.10;0.90;;;8.80;99.90;;;;;;5074948;28;20789;-71
2023/01/11 02:17:59;;;;;;;2.30;1.07;;;8.80;99.90;;;;;;5074928;28;20408;-70
2023/01/11 02:20:40;;;;;;;1.10;0.80;;;8.90;99.90;;;;;;5075261;28;20425;-70
2023/01/11 02:23:11;;;;;;;1.10;0.80;;;9.00;99.90;;;;;;5075084;28;20246;-70
2023/01/11 02:25:52;;;;;;;1.63;0.80;;;9.10;99.90;;;;;;5074527;28;20414;-71
2023/01/11 02:28:54;;;;;;;1.17;0.70;;;9.00;99.90;;;;;;5056609;28;20411;-72
2023/01/11 02:31:48;;;;;;;1.47;0.67;;;9.10;99.90;;;;;;4991082;28;20486;-71
2023/01/11 02:34:40;;;;;;;1.00;0.70;;;9.20;99.90;;;;;;5074514;28;20546;-71
2023/01/11 02:37:35;;;;;;;2.10;0.80;;;9.10;99.90;;;;;;5074856;28;20396;-71
2023/01/11 02:40:24;;;;;;;1.20;0.83;;;9.00;99.90;;;;;;4986427;28;20425;-71
2023/01/11 02:46:09;;;;;;;1.53;0.70;;;9.00;99.90;;;;;;5074527;28;20394;-71
2023/01/11 02:48:51;;;;;;;0.87;0.80;;;9.00;99.90;;;;;;5057250;28;20413;-71
2023/01/11 02:51:26;;;;;;;1.57;0.90;;;9.00;99.90;;;;;;5075197;28;20509;-71
2023/01/11 02:54:08;;;;;;;0.80;0.60;;;9.10;99.90;;;;;;5056773;28;20431;-70
2023/01/11 02:56:46;;;;;;;2.20;0.70;;;9.10;99.90;;;;;;5074687;28;20461;-70
2023/01/11 02:59:19;;;;;;;1.00;0.70;;;9.30;99.90;;;;;;5055944;28;20420;-71
2023/01/11 03:01:48;;;;;;;0.70;0.50;;;9.40;99.90;;;;;;5074530;28;20408;-71
2023/01/11 03:04:24;;;;;;;1.53;0.70;;;9.30;99.90;;;;;;5075179;28;20942;-71
2023/01/11 03:06:55;;;;;;;1.60;0.60;;;9.40;99.90;;;;;;5074764;28;20400;-70
2023/01/11 03:09:27;;;;;;;2.33;0.70;;;9.40;99.90;;;;;;5056321;28;20406;-71
2023/01/11 03:15:17;;;;;;;0.87;0.60;;;9.50;99.90;;;;;;5074479;28;20812;-71
2023/01/11 03:18:10;;;;;;;1.20;0.67;;;9.60;99.90;;;;;;5074675;28;20396;-71
2023/01/11 03:20:43;;;;;;;0.93;0.53;;;9.60;99.90;;;;;;5074293;28;20804;-70
2023/01/11 03:23:22;;;;;;;1.00;0.77;;;9.70;99.90;;;;;;5073950;28;20523;-71
2023/01/11 03:26:20;;;;;;;0.80;0.60;;;9.70;99.90;;;;;;5074256;28;20385;-71
2023/01/11 03:29:15;;;;;;;1.83;0.50;;;9.70;99.90;;;;;;5070545;28;20408;-70
2023/01/11 03:31:51;;;;;;;1.13;0.60;;;9.70;99.90;;;;;;5054456;28;20438;-71
2023/01/11 03:34:29;;;;;;;0.73;0.57;;;9.70;99.90;;;;;;5054215;28;20969;-70
2023/01/11 03:36:58;;;;;;;0.70;0.50;;;9.90;99.90;;;;;;5054786;28;20756;-71
2023/01/11 03:39:29;;;;;;;1.80;0.70;;;9.80;99.90;;;;;;5054050;28;20479;-70
2023/01/11 03:41:58;;;;;;;1.60;0.60;;;9.80;99.90;;;;;;5064428;28;20420;-70
2023/01/11 03:44:27;;;;;;;0.97;0.50;;;9.70;99.90;;;;;;5073060;28;20471;-70
2023/01/11 03:46:57;;;;;;;1.20;0.70;;;9.80;99.90;;;;;;5073227;28;20446;-70
2023/01/11 03:49:50;;;;;;;1.00;0.57;;;9.70;99.90;;;;;;5073218;28;20410;-70
2023/01/11 03:52:19;;;;;;;1.53;0.67;;;9.60;99.90;;;;;;5073290;28;20436;-70
2023/01/11 03:54:46;;;;;;;0.90;0.70;;;9.50;99.90;;;;;;5073046;28;20414;-71
2023/01/11 03:57:50;;;;;;;0.70;0.50;;;9.50;99.90;;;;;;5072413;28;20504;-70
2023/01/11 04:00:23;;;;;;;0.80;0.70;;;9.50;99.90;;;;;;5048462;28;20832;-71
2023/01/11 04:02:48;;;;;;;0.70;0.50;;;9.50;99.90;;;;;;5048316;28;20514;-71
2023/01/11 04:05:14;;;;;;;1.73;0.60;;;9.60;99.90;;;;;;5035273;28;20833;-70
2023/01/11 04:07:40;;;;;;;2.30;0.63;;;9.40;99.90;;;;;;5053197;28;20684;-70
2023/01/11 04:10:07;;;;;;;2.00;0.70;;;9.40;99.90;;;;;;5053450;28;20992;-70
2023/01/11 04:12:32;;;;;;;0.97;0.50;;;9.60;99.90;;;;;;5064913;28;20192;-70
2023/01/11 04:15:00;;;;;;;0.80;0.60;;;9.70;99.90;;;;;;5057394;28;20733;-70
2023/01/11 04:17:25;;;;;;;0.90;0.57;;;9.80;99.90;;;;;;5073808;28;20169;-70
2023/01/11 04:19:51;;;;;;;1.60;0.60;;;9.80;99.90;;;;;;5073134;28;20505;-70
2023/01/11 04:22:16;;;;;;;0.90;0.60;;;9.70;99.90;;;;;;5073927;28;20181;-70
2023/01/11 04:24:42;;;;;;;1.00;0.60;;;9.80;99.90;;;;;;5054594;28;20181;-70
2023/01/11 04:27:08;;;;;;;1.23;0.70;;;9.80;99.90;;;;;;5072130;28;20172;-70
2023/01/11 04:29:33;;;;;;;1.43;0.50;;;9.70;99.90;;;;;;5072544;28;20493;-70
2023/01/11 04:31:59;;;;;;;0.70;0.50;;;9.80;99.90;;;;;;5054379;28;20257;-70
2023/01/11 04:34:24;;;;;;;1.43;0.53;;;9.80;99.90;;;;;;5072598;28;20741;-70
2023/01/11 04:36:50;;;;;;;1.73;0.60;;;9.80;99.90;;;;;;5071966;28;20170;-69
2023/01/11 04:39:15;;;;;;;0.70;0.50;;;9.70;99.90;;;;;;5072339;28;20170;-69
2023/01/11 04:44:25;;;;;;;1.30;0.70;;;9.70;99.90;;;;;;5071852;28;20196;-70
2023/01/11 04:46:50;;;;;;;0.80;0.57;;;9.60;99.90;;;;;;5072092;28;20411;-71
2023/01/11 04:49:16;;;;;;;0.97;0.60;;;9.70;99.90;;;;;;5071964;28;20170;-71
2023/01/11 04:51:42;;;;;;;1.30;0.50;;;9.70;99.90;;;;;;5071965;28;20721;-69
2023/01/11 04:54:08;;;;;;;0.70;0.50;;;9.70;99.90;;;;;;5071913;28;20197;-70
2023/01/11 04:56:35;;;;;;;1.13;0.60;;;9.90;99.90;;;;;;5053755;28;20170;-69
2023/01/11 04:59:00;;;;;;;2.17;0.70;;;9.70;99.90;;;;;;5072243;28;20406;-69
2023/01/11 05:01:26;;;;;;;1.30;0.60;;;9.60;99.90;;;;;;5054130;28;20514;-70
2023/01/11 05:03:51;;;;;;;1.20;0.70;;;9.50;99.90;;;;;;5072415;28;20191;-70
2023/01/11 05:06:24;;;;;;;0.90;0.50;;;9.50;99.90;;;;;;5072441;28;20179;-70
2023/01/11 05:08:50;;;;;;;1.37;0.60;;;9.50;99.90;;;;;;5054041;28;20607;-71
2023/01/11 05:11:16;;;;;;;0.87;0.50;;;9.50;99.90;;;;;;5071022;28;20578;-71
2023/01/11 05:13:42;;;;;;;0.80;0.57;;;9.50;99.90;;;;;;5070623;28;20280;-70
2023/01/11 05:16:08;;;;;;;0.80;0.50;;;9.50;99.90;;;;;;5072160;28;20488;-70
2023/01/11 05:18:34;;;;;;;1.10;0.60;;;9.50;99.90;;;;;;5052543;28;20741;-71
2023/01/11 05:21:00;;;;;;;1.67;0.60;;;9.50;99.90;;;;;;5035823;28;20519;-70
2023/01/11 05:23:26;;;;;;;1.13;0.60;;;9.50;99.90;;;;;;5051680;28;20511;-71
2023/01/11 05:25:51;;;;;;;0.90;0.70;;;9.70;99.90;;;;;;5051956;28;20494;-71
2023/01/11 05:28:17;;;;;;;1.20;0.60;;;9.60;99.90;;;;;;5051381;28;20196;-70
2023/01/11 05:30:42;;;;;;;2.50;0.67;;;9.60;99.90;;;;;;5051736;28;20248;-71
2023/01/11 05:33:08;;;;;;;0.80;0.63;;;9.70;99.90;;;;;;5051283;28;20208;-71
2023/01/11 05:35:33;;;;;;;0.70;0.53;;;9.70;99.90;;;;;;5051910;28;20186;-70
2023/01/11 05:37:59;;;;;;;1.30;0.53;;;9.70;99.90;;;;;;5056093;28;20177;-71
2023/01/11 05:40:25;;;;;;;2.30;0.80;;;9.70;99.90;;;;;;5044651;28;20672;-72
2023/01/11 05:42:50;;;;;;;0.80;0.60;;;9.60;99.90;;;;;;5062626;28;20284;-69
2023/01/11 05:45:28;;;;;;;0.83;0.60;;;9.70;99.90;;;;;;5071560;28;20256;-69
2023/01/11 05:47:53;;;;;;;1.00;0.60;;;9.80;99.90;;;;;;5071015;28;20184;-71
2023/01/11 05:50:19;;;;;;;0.80;0.80;;;9.70;99.90;;;;;;5071849;28;20998;-70
2023/01/11 05:52:45;;;;;;;1.20;0.50;;;9.70;99.90;;;;;;5071709;28;20186;-71
2023/01/11 05:55:10;;;;;;;1.30;0.63;;;9.80;99.90;;;;;;5072139;28;20168;-70
2023/01/11 05:57:40;;;;;;;2.13;0.70;;;9.90;99.90;;;;;;5071914;28;20690;-71
2023/01/11 06:00:06;;;;;;;1.30;1.13;;;9.80;99.90;;;;;;5071352;28;20212;-70
2023/01/11 06:02:33;;;;;;;2.40;0.73;;;9.90;99.90;;;;;;5071843;28;20436;-69
2023/01/11 06:04:59;;;;;;;1.13;0.60;;;9.80;99.90;;;;;;5071814;28;20413;-71
2023/01/11 06:07:24;;;;;;;1.00;0.67;;;9.80;99.90;;;;;;5053871;28;20405;-72
2023/01/11 06:09:50;;;;;;;1.20;0.80;;;9.80;99.90;;;;;;5071975;28;20174;-70
2023/01/11 06:12:16;;;;;;;2.70;1.10;;;9.70;99.90;;;;;;5072018;28;20236;-70
2023/01/11 06:14:41;;;;;;;0.70;0.60;;;9.60;99.90;;;;;;5070154;28;20183;-71
2023/01/11 06:17:07;;;;;;;0.90;0.60;;;9.60;99.90;;;;;;5072013;28;20168;-71
2023/01/11 06:19:32;;;;;;;1.10;0.63;;;9.70;99.90;;;;;;5071920;28;20299;-70
2023/01/11 06:21:58;;;;;;;0.80;0.60;;;9.70;99.90;;;;;;5072318;28;20210;-71
2023/01/11 06:24:23;;;;;;;1.20;0.70;;;9.70;99.90;;;;;;5075216;28;20362;-70
2023/01/11 06:26:51;;;;;;;1.00;0.70;;;9.60;99.90;;;;;;5074949;28;20177;-70
2023/01/11 06:29:17;;;;;;;1.47;0.60;;;9.60;99.90;;;;;;5074110;28;20179;-71
2023/01/11 06:31:43;;;;;;;1.13;0.57;;;9.60;99.90;;;;;;5073550;28;20458;-71
2023/01/11 06:34:08;;;;;;;0.70;0.40;;;9.70;99.90;;;;;;5056560;28;20210;-71
2023/01/11 06:36:34;;;;;;;1.43;0.80;;;9.80;99.90;;;;;;5074647;28;20253;-71
2023/01/11 06:38:59;;;;;;;0.70;0.60;;;9.80;99.90;;;;;;5074870;28;20174;-71
2023/01/11 06:41:27;;;;;;;1.20;0.80;;;9.80;99.90;;;;;;5074883;28;20162;-71
2023/01/11 06:43:53;;;;;;;1.20;0.70;;;9.90;99.90;;;;;;5075226;28;20190;-71
2023/01/11 06:46:19;;;;;;;1.00;0.60;;;9.80;99.90;;;;;;5077163;28;20469;-71
2023/01/11 06:48:45;;;;;;;1.30;0.70;;;9.70;99.90;;;;;;5075232;28;20418;-69
2023/01/11 06:51:11;;;;;;;1.00;0.70;;;9.90;99.90;;;;;;5075332;28;20215;-69
2023/01/11 06:53:37;;;;;;;2.00;0.60;;;9.80;99.90;;;;;;5056914;28;20432;-69
2023/01/11 06:56:03;;;;;;;0.97;0.70;;;9.80;99.90;;;;;;5075982;28;20401;-70
2023/01/11 06:58:29;;;;;;;0.70;0.57;;;9.70;99.90;;;;;;5076361;28;20420;-72
2023/01/11 07:00:56;;;;;;;0.80;0.70;;;9.80;99.90;;;;;;5075225;28;20177;-71
2023/01/11 07:03:25;;;;;;;2.30;0.80;;;9.80;99.90;;;;;;5074665;28;20186;-72
2023/01/11 07:05:52;;;;;;;1.73;1.00;;;9.80;99.90;;;;;;5074798;28;20400;-72
2023/01/11 07:08:19;;;;;;;1.57;1.00;;;9.80;99.90;;;;;;5056859;28;20408;-72
2023/01/11 07:10:44;;;;;;;1.00;0.70;;;10.00;99.90;;;;;;5075013;28;20449;-71
2023/01/11 07:13:11;;;;;;;1.03;0.60;;;10.00;99.90;;;;;;5063462;28;20784;-69
2023/01/11 07:15:36;;;;;;;1.10;0.83;;;10.10;99.90;;;;;;5079547;28;20173;-71
2023/01/11 07:18:02;;;;;;;0.80;0.60;;;10.20;99.90;;;;;;5077919;28;20405;-71
2023/01/11 07:20:28;;;;;;;0.90;0.80;;;10.20;99.90;;;;;;5057062;28;20301;-70
2023/01/11 07:22:58;;;;;;;1.10;0.60;;;10.30;99.90;;;;;;5074472;28;20767;-70
2023/01/11 07:25:28;;;;;;;0.73;0.60;;;10.30;99.90;;;;;;5056808;28;20473;-70
2023/01/11 07:28:04;;;;;;;1.00;0.70;;;10.20;99.90;;;;;;5057121;28;20428;-70
2023/01/11 07:30:32;;;;;;;0.90;0.60;;;10.00;99.90;;;;;;5075325;28;20430;-70
2023/01/11 07:32:59;;;;;;;1.23;0.60;;;10.00;99.90;;;;;;5075461;28;20458;-70
2023/01/11 07:35:25;;;;;;;0.80;0.70;;;10.00;99.90;;;;;;5073112;28;20405;-70
2023/01/11 07:37:51;;;;;;;1.20;0.70;;;10.20;99.90;;;;;;5074561;28;20418;-70
2023/01/11 07:40:17;;;;;;;2.20;0.70;;;10.30;99.90;;;;;;5056333;28;20818;-70
2023/01/11 07:45:36;;;;;;;2.50;0.60;;;10.40;99.90;;;;;;5074306;28;20372;-70
2023/01/11 07:48:06;;;;;;;1.07;0.80;;;10.40;99.90;;;;;;5074191;28;20400;-71
2023/01/11 07:50:32;;;;;;;1.07;0.70;;;10.40;99.90;;;;;;5073958;28;20522;-73
2023/01/11 07:52:57;;;;;;;1.00;0.70;;;10.40;99.90;;;;;;5074711;28;20430;-71
2023/01/11 07:55:23;;;;;;;1.20;0.83;;;10.40;99.90;;;;;;5075567;28;20582;-70
2023/01/11 07:57:49;;;;;;;1.50;0.80;;;10.60;99.90;;;;;;5079403;28;20186;-71
2023/01/11 08:00:16;;;;;;;1.23;0.67;;;10.70;99.90;;;;;;5084822;28;20417;-72
2023/01/11 08:02:42;;;;;;;1.60;0.60;;;10.70;99.90;;;;;;5085101;28;20190;-72
2023/01/11 08:05:08;;;;;;;1.40;0.60;;;10.80;99.90;;;;;;5086286;28;20411;-72
2023/01/11 08:07:33;;;;;;;0.77;0.50;;;10.90;99.90;;;;;;5086764;28;20403;-72
2023/01/11 08:09:59;;;;;;;0.80;0.60;;;11.00;99.90;;;;;;5070401;28;20475;-73
2023/01/11 08:15:11;;;;;;;1.17;1.00;;;11.20;99.90;;;;;;5082949;28;20178;-72
2023/01/11 08:17:37;;;;;;;0.70;0.60;;;11.30;99.90;;;;;;5085291;28;20406;-73
2023/01/11 08:20:03;;;;;;;0.97;0.60;;;11.30;99.90;;;;;;5067550;28;20409;-73
2023/01/11 08:22:29;;;;;;;1.67;1.10;;;11.20;99.90;;;;;;5084048;28;20442;-73
2023/01/11 08:24:54;;;;;;;1.83;0.60;;;11.20;99.90;;;;;;5066997;28;20491;-73
2023/01/11 08:27:20;;;;;;;1.60;0.90;;;11.30;99.90;;;;;;5086967;28;20158;-74
2023/01/11 08:29:45;;;;;;;1.50;0.50;;;11.30;99.90;;;;;;5088217;28;20228;-74
2023/01/11 08:32:11;;;;;;;1.47;0.60;;;11.30;99.90;;;;;;5086809;28;20192;-71
2023/01/11 08:34:37;;;;;;;0.87;0.60;;;11.50;99.90;;;;;;5084679;28;20182;-72
2023/01/11 08:37:04;;;;;;;1.00;0.60;;;11.50;99.90;;;;;;5086892;28;20396;-72
2023/01/11 08:39:29;;;;;;;0.77;0.50;;;11.40;99.90;;;;;;5067586;28;20424;-72
2023/01/11 08:41:59;;;;;;;1.00;0.70;;;11.40;99.90;;;;;;5085395;28;20409;-71
2023/01/11 08:44:25;;;;;;;1.13;0.80;;;11.40;99.90;;;;;;5084378;28;20207;-72
2023/01/11 08:46:51;;;;;;;1.00;0.60;;;11.30;99.90;;;;;;5083158;28;20408;-72
2023/01/11 08:49:16;;;;;;;0.90;0.60;;;11.30;99.90;;;;;;5079737;28;20231;-70
2023/01/11 08:51:42;;;;;;;0.97;0.57;;;11.30;99.90;;;;;;5085736;28;20442;-73
2023/01/11 08:54:13;;;;;;;1.97;0.70;;;11.30;99.90;;;;;;5073357;28;20214;-70
2023/01/11 08:56:39;;;;;;;1.27;0.60;;;11.40;99.90;;;;;;5073011;28;20170;-70
2023/01/11 08:59:05;;;;;;;0.90;0.60;;;11.40;99.90;;;;;;5073085;28;20407;-72
2023/01/11 09:01:32;;;;;;;2.20;0.93;;;11.40;99.90;;;;;;5078422;28;20506;-71
2023/01/11 09:03:58;;;;;;;1.83;0.73;;;11.50;99.90;;;;;;5058418;28;20450;-73
2023/01/11 09:06:24;;;;;;;1.77;0.70;;;11.60;99.90;;;;;;5075841;28;20412;-72
2023/01/11 09:08:50;;;;;;;0.80;0.60;;;11.70;99.90;;;;;;5072672;28;20433;-74
2023/01/11 09:14:00;;;;;;;1.67;0.80;;;11.70;99.90;;;;;;5075276;28;20436;-72
2023/01/11 09:16:25;;;;;;;1.13;0.83;;;11.80;99.90;;;;;;5073625;28;20409;-72
2023/01/11 09:18:51;;;;;;;1.20;0.80;;;11.80;99.90;;;;;;5074125;28;20315;-70
2023/01/11 09:21:16;;;;;;;1.20;0.73;;;11.70;99.90;;;;;;5074044;28;20171;-71
2023/01/11 09:23:43;;;;;;;0.90;0.70;;;11.80;99.90;;;;;;5074762;28;20199;-71
2023/01/11 09:26:11;;;;;;;0.90;0.80;;;11.80;99.90;;;;;;5075104;28;20623;-72
2023/01/11 09:28:37;;;;;;;1.40;0.60;;;11.80;99.90;;;;;;5072672;28;20410;-72
2023/01/11 09:31:03;;;;;;;0.80;0.70;;;11.70;99.90;;;;;;5073303;28;20562;-72
2023/01/11 09:33:28;;;;;;;0.70;0.50;;;11.80;99.90;;;;;;5072680;28;20998;-71
2023/01/11 09:35:57;;;;;;;1.53;0.90;;;11.80;99.90;;;;;;5072897;28;20419;-70
2023/01/11 09:38:28;;;;;;;1.43;0.77;;;11.80;99.90;;;;;;5056843;28;20760;-70
2023/01/11 09:41:08;;;;;;;1.30;0.90;;;11.90;99.90;;;;;;5074630;28;20396;-70
2023/01/11 09:43:41;;;;;;;1.17;0.80;;;11.90;99.90;;;;;;5073124;28;20523;-71
2023/01/11 09:46:07;;;;;;;3.17;0.80;;;12.00;99.90;;;;;;5072757;28;20517;-71
2023/01/11 09:48:48;;;;;;;1.20;0.80;;;11.90;99.90;;;;;;5072959;28;20403;-71
2023/01/11 09:51:15;;;;;;;0.97;0.70;;;12.00;99.90;;;;;;5055767;28;20532;-72
2023/01/11 09:53:48;;;;;;;1.70;1.10;;;11.90;99.90;;;;;;5073379;28;20867;-73
2023/01/11 09:56:15;;;;;;;1.00;0.80;;;11.90;99.90;;;;;;5072727;28;20745;-74
2023/01/11 09:59:00;;;;;;;1.00;0.60;;;11.90;99.90;;;;;;5073874;28;20416;-72
2023/01/11 10:01:36;;;;;;;1.00;0.87;;;12.00;99.90;;;;;;5076883;28;20542;-74
2023/01/11 10:04:24;;;;;;;1.60;0.63;;;12.10;99.90;;;;;;5058123;28;20452;-72
2023/01/11 10:07:09;;;;;;;0.97;0.80;;;12.10;99.90;;;;;;5075718;28;20456;-72
2023/01/11 10:09:55;;;;;;;1.10;0.73;;;12.10;99.90;;;;;;5076058;28;20518;-71
2023/01/11 10:12:43;;;;;;;1.10;0.60;;;12.10;99.90;;;;;;5057382;28;20443;-72
2023/01/11 10:15:19;;;;;;;1.33;0.87;;;12.00;99.90;;;;;;5074915;28;20408;-71
2023/01/11 10:18:12;;;;;;;1.30;0.60;;;12.00;99.90;;;;;;5076372;28;20403;-74
2023/01/11 10:20:44;;;;;;;1.60;0.70;;;12.00;99.90;;;;;;5075751;28;20726;-72
2023/01/11 10:23:23;;;;;;;0.87;0.70;;;12.10;99.90;;;;;;5076345;28;20425;-73
2023/01/11 10:25:55;;;;;;;0.80;0.50;;;12.20;99.90;;;;;;5076020;28;20409;-69
2023/01/11 10:28:34;;;;;;;1.23;0.80;;;12.20;99.90;;;;;;5075928;28;20412;-70
2023/01/11 10:31:28;;;;;;;1.07;0.80;;;12.30;99.90;;;;;;5073589;28;20456;-70
2023/01/11 10:36:38;;;;;;;2.70;0.73;;;12.10;99.90;;;;;;5075876;28;20446;-71
2023/01/11 10:42:20;;;;;;;1.43;0.60;;;12.20;99.90;;;;;;5075693;28;20387;-72
2023/01/11 10:44:59;;;;;;;0.90;0.70;;;12.20;99.90;;;;;;5057348;28;20408;-72
2023/01/11 10:47:30;;;;;;;2.53;0.87;;;12.30;99.90;;;;;;5074794;28;20485;-71
2023/01/11 10:50:07;;;;;;;0.87;0.70;;;12.50;99.90;;;;;;5075566;28;20384;-71
2023/01/11 10:52:46;;;;;;;1.63;0.60;;;12.50;99.90;;;;;;5075504;28;20434;-71
2023/01/11 10:55:43;;;;;;;0.80;0.70;;;12.50;99.90;;;;;;5075558;28;20383;-71
2023/01/11 10:58:28;;;;;;;0.90;0.60;;;12.50;99.90;;;;;;5072591;28;20421;-70
2023/01/11 11:01:43;;;;;;;1.43;1.17;;;12.40;99.90;;;;;;5074526;28;20762;-72
2023/01/11 11:04:36;;;;;;;1.80;1.10;;;12.30;99.90;;;;;;5069077;28;20439;-73
2023/01/11 11:07:14;;;;;;;1.73;1.10;;;12.30;99.90;;;;;;5074654;28;20474;-73
2023/01/11 11:10:04;;;;;;;2.20;0.80;;;12.30;99.90;;;;;;5055367;28;20546;-73
2023/01/11 11:12:36;;;;;;;1.97;1.10;;;12.30;99.90;;;;;;5074172;28;20456;-72
2023/01/11 11:15:05;;;;;;;1.20;0.60;;;12.40;99.90;;;;;;5073518;28;20498;-73
2023/01/11 11:17:34;;;;;;;2.60;0.80;;;12.30;99.90;;;;;;5074796;28;20809;-72
2023/01/11 11:20:12;;;;;;;1.67;0.80;;;12.40;99.90;;;;;;5074412;28;20430;-72
2023/01/11 11:22:37;;;;;;;0.80;0.70;;;12.50;99.90;;;;;;5075001;28;20416;-73
2023/01/11 11:25:14;;;;;;;0.97;0.70;;;12.40;99.90;;;;;;5056683;28;20412;-72
2023/01/11 11:27:43;;;;;;;1.10;0.80;;;12.30;99.90;;;;;;5074856;28;20146;-77
2023/01/11 11:30:10;;;;;;;1.27;0.70;;;12.40;99.90;;;;;;5074555;28;20406;-74
2023/01/11 11:32:38;;;;;;;1.00;0.80;;;12.40;99.90;;;;;;5074439;28;20552;-72
2023/01/11 11:35:06;;;;;;;1.00;0.70;;;12.50;99.90;;;;;;5075622;28;20462;-72
2023/01/11 11:37:43;;;;;;;3.17;0.80;;;12.70;99.90;;;;;;5075470;28;20428;-73
2023/01/11 11:40:32;;;;;;;2.23;1.00;;;12.70;99.90;;;;;;5057303;28;20411;-73
2023/01/11 11:43:20;;;;;;;0.90;0.70;;;12.60;99.90;;;;;;5067825;28;20449;-72
2023/01/11 11:46:00;;;;;;;1.10;0.63;;;12.60;99.90;;;;;;5073823;28;20418;-74
2023/01/11 11:48:30;;;;;;;1.00;0.70;;;12.70;99.90;;;;;;5074565;28;20826;-72
2023/01/11 11:50:58;;;;;;;1.43;0.80;;;12.70;99.90;;;;;;5073880;28;20446;-72
2023/01/11 11:53:34;;;;;;;1.27;0.77;;;12.70;99.90;;;;;;5073736;28;20431;-70
2023/01/11 11:56:16;;;;;;;0.80;0.60;;;12.80;99.90;;;;;;5074420;28;20422;-71
2023/01/11 11:58:43;;;;;;;1.27;0.80;;;12.90;99.90;;;;;;5074764;28;20390;-71
2023/01/11 12:01:30;;;;;;;1.30;0.97;;;12.70;99.90;;;;;;5073511;28;20814;-70
2023/01/11 12:04:11;;;;;;;1.90;1.00;;;12.80;99.90;;;;;;5074778;28;20462;-70
2023/01/11 12:06:39;;;;;;;1.30;1.00;;;12.80;99.90;;;;;;5056227;28;20412;-72
2023/01/11 12:09:12;;;;;;;0.90;0.80;;;12.70;99.90;;;;;;5056793;28;20739;-71
2023/01/11 12:11:40;;;;;;;1.70;0.90;;;12.70;99.90;;;;;;5074161;28;20439;-71
2023/01/11 12:14:09;;;;;;;1.30;0.90;;;12.70;99.90;;;;;;5074245;28;20518;-71
2023/01/11 12:16:38;;;;;;;1.87;0.73;;;13.00;99.90;;;;;;5054054;28;20820;-73
2023/01/11 12:19:23;;;;;;;1.77;0.90;;;13.00;99.90;;;;;;5073447;28;20457;-73
2023/01/11 12:21:50;;;;;;;1.00;0.80;;;13.00;99.90;;;;;;5073621;28;20388;-73
2023/01/11 12:24:21;;;;;;;1.10;0.70;;;13.00;99.90;;;;;;5073385;28;20498;-71
2023/01/11 12:27:04;;;;;;;1.13;1.00;;;12.90;99.90;;;;;;5073722;28;20389;-71
2023/01/11 12:30:03;;;;;;;1.17;0.80;;;12.90;99.90;;;;;;5073274;28;20387;-71
2023/01/11 12:32:29;;;;;;;3.33;1.00;;;12.80;99.90;;;;;;5071567;28;20908;-71
2023/01/11 12:35:04;;;;;;;1.00;0.90;;;13.00;99.90;;;;;;5073422;28;20432;-72
2023/01/11 12:37:36;;;;;;;1.93;0.87;;;12.80;99.90;;;;;;5073895;28;20153;-72
2023/01/11 12:40:28;;;;;;;0.97;0.80;;;12.80;99.90;;;;;;5074041;28;20478;-72
2023/01/11 12:43:16;;;;;;;0.80;0.70;;;12.80;99.90;;;;;;5071925;28;20478;-72
2023/01/11 12:46:00;;;;;;;1.10;0.90;;;13.10;99.90;;;;;;5073403;28;20407;-72
2023/01/11 12:48:50;;;;;;;1.00;0.80;;;13.10;99.90;;;;;;5072390;28;20458;-72
2023/01/11 12:52:00;;;;;;;1.23;0.90;;;13.10;99.90;;;;;;5072902;28;20442;-72
2023/01/11 12:55:13;;;;;;;3.53;1.23;;;13.20;99.90;;;;;;5071898;28;20858;-72
2023/01/11 12:57:52;;;;;;;1.13;1.03;;;13.30;99.90;;;;;;4980138;28;20485;-71
2023/01/11 13:00:33;;;;;;;1.20;0.90;;;13.20;99.90;;;;;;5071541;28;20478;-73
2023/01/11 13:03:18;;;;;;;1.30;1.13;;;13.10;99.90;;;;;;5072703;28;20459;-73
2023/01/11 13:06:13;;;;;;;1.40;0.97;;;13.10;99.90;;;;;;5072993;28;20396;-72
2023/01/11 13:09:01;;;;;;;3.10;1.33;;;13.00;99.90;;;;;;5054510;28;20410;-72
2023/01/11 13:11:56;;;;;;;1.47;1.10;;;13.00;99.90;;;;;;5073042;28;20439;-73
2023/01/11 13:14:59;;;;;;;1.20;1.00;;;12.90;99.90;;;;;;5071811;28;20414;-73
2023/01/11 13:17:42;;;;;;;1.50;1.07;;;13.00;99.90;;;;;;5053130;28;20420;-73
2023/01/11 13:20:40;;;;;;;0.83;0.73;;;13.20;99.90;;;;;;5073040;28;20869;-72
2023/01/11 13:23:10;;;;;;;1.10;0.80;;;13.30;99.90;;;;;;5072740;28;20418;-72
2023/01/11 13:25:40;;;;;;;1.43;0.87;;;13.20;99.90;;;;;;5073027;28;20384;-72
2023/01/11 13:28:23;;;;;;;1.83;1.10;;;13.30;99.90;;;;;;5053835;28;20791;-72
2023/01/11 13:30:50;;;;;;;1.20;1.07;;;13.30;99.90;;;;;;5072332;28;20539;-72
2023/01/11 13:33:24;;;;;;;1.73;1.10;;;13.30;99.90;;;;;;5073645;28;20459;-72
2023/01/11 13:35:57;;;;;;;0.90;0.80;;;13.20;99.90;;;;;;5076412;28;20409;-73
2023/01/11 13:38:53;;;;;;;0.80;0.70;;;13.20;99.90;;;;;;5076869;28;20383;-71
2023/01/11 13:41:47;;;;;;;1.10;0.80;;;13.00;99.90;;;;;;5076815;28;20706;-70
2023/01/11 13:44:46;;;;;;;1.43;0.77;;;12.90;99.90;;;;;;5076582;28;20862;-72
2023/01/11 13:47:20;;;;;;;1.40;0.83;;;12.80;99.90;;;;;;5076003;28;20416;-74
2023/01/11 13:49:55;;;;;;;2.07;1.00;;;12.50;99.90;;;;;;5076810;28;20398;-72
2023/01/11 13:52:50;;;;;;;1.57;1.00;;;12.40;99.90;;;;;;5075780;28;20483;-72